Time;durP1;ratioP1;P1;durP2;ratioP2;P2;SDS_P1;SDS_P2;PMS_P1;PMS_P2;Temp;Humidity;BMP_temperature;BMP_pressure;BME280_temperature;BME280_humidity;BME280_pressure;Samples;Min_cycle;Max_cycle;Signal;HPM_P1;HPM_P2
2022/12/10 00:01:19;;;;;;;;;;;;;;;3.28;58.91;99943.81;5043076;28;19980;-50
2022/12/10 00:03:45;;;;;;;;;;;;;;;3.25;58.98;99938.63;5039385;28;19988;-52
2022/12/10 00:06:12;;;;;;;;;;;;;;;2.97;59.46;99959.34;5036827;28;19921;-49
2022/12/10 00:08:37;;;;;;;;;;;;;;;3.12;59.28;99953.31;5038801;28;19975;-50
2022/12/10 00:11:03;;;;;;;;;;;;;;;3.20;59.35;99953.34;5037752;28;19925;-50
2022/12/10 00:13:29;;;;;;;;;;;;;;;3.19;59.37;99949.88;5037060;28;19932;-50
2022/12/10 00:15:54;;;;;;;;;;;;;;;3.29;59.21;99955.94;5036693;28;20421;-52
2022/12/10 00:18:19;;;;;;;;;;;;;;;3.21;59.05;99952.47;5039802;28;19931;-53
2022/12/10 00:20:44;;;;;;;;;;;;;;;3.26;59.06;99945.53;5050191;28;19996;-52
2022/12/10 00:23:10;;;;;;;;;;;;;;;3.20;58.87;99962.00;5042463;28;19931;-48
2022/12/10 00:25:35;;;;;;;;;;;;;;;3.20;58.96;99962.00;5037786;28;20007;-50
2022/12/10 00:28:00;;;;;;;;;;;;;;;3.12;59.07;99963.72;5040325;28;20377;-52
2022/12/10 00:30:26;;;;;;;;;;;;;;;3.15;59.18;99960.22;5049628;28;19925;-49
2022/12/10 00:32:51;;;;;;;;;;;;;;;3.08;59.22;99956.78;5050988;28;19928;-51
2022/12/10 00:35:16;;;;;;;;;;;;;;;3.05;59.44;99963.69;5051511;28;20032;-50
2022/12/10 00:37:42;;;;;;;;;;;;;;;3.00;59.14;99961.09;5038697;28;20286;-49
2022/12/10 00:40:07;;;;;;;;;;;;;;;3.08;59.20;99958.50;5046162;28;19924;-50
2022/12/10 00:42:33;;;;;;;;;;;;;;;3.07;59.02;99967.13;5050547;28;19924;-49
2022/12/10 00:44:58;;;;;;;;;;;;;;;3.07;59.26;99968.03;5051223;28;19929;-49
2022/12/10 00:47:23;;;;;;;;;;;;;;;3.15;59.04;99962.81;5049540;28;20395;-50
2022/12/10 00:49:49;;;;;;;;;;;;;;;3.15;58.99;99961.13;5048591;28;20361;-49
2022/12/10 00:52:14;;;;;;;;;;;;;;;3.14;59.05;99964.56;5045468;28;19921;-48
2022/12/10 00:54:39;;;;;;;;;;;;;;;2.96;59.31;99961.94;5037671;28;20192;-49
2022/12/10 00:57:04;;;;;;;;;;;;;;;2.94;59.65;99966.25;5037203;28;20293;-49
2022/12/10 00:59:30;;;;;;;;;;;;;;;2.87;59.35;99967.97;5050180;28;20008;-49
2022/12/10 01:01:55;;;;;;;;;;;;;;;2.89;59.55;99973.16;5050467;28;19979;-51
2022/12/10 01:04:20;;;;;;;;;;;;;;;2.88;59.60;99972.31;5050791;28;19929;-55
2022/12/10 01:06:50;;;;;;;;;;;;;;;2.85;59.52;99976.63;5049259;28;19932;-51
2022/12/10 01:09:17;;;;;;;;;;;;;;;2.90;59.41;99972.28;5038071;28;19971;-50
2022/12/10 01:11:44;;;;;;;;;;;;;;;2.96;59.01;99969.72;5045005;28;19956;-51
2022/12/10 01:14:11;;;;;;;;;;;;;;;2.93;58.92;99973.16;5036343;28;19928;-52
2022/12/10 01:16:36;;;;;;;;;;;;;;;2.92;58.92;99973.19;5037661;28;19921;-50
2022/12/10 01:19:02;;;;;;;;;;;;;;;2.93;59.23;99974.91;5036438;28;20329;-53
2022/12/10 01:21:28;;;;;;;;;;;;;;;2.88;59.20;99974.03;5036554;28;20373;-52
2022/12/10 01:23:54;;;;;;;;;;;;;;;2.93;59.06;99972.31;5036137;28;19929;-48
2022/12/10 01:26:21;;;;;;;;;;;;;;;2.99;59.25;99972.31;5038484;28;19928;-49
2022/12/10 01:28:47;;;;;;;;;;;;;;;2.91;59.23;99966.22;5049120;28;19925;-50
2022/12/10 01:31:18;;;;;;;;;;;;;;;2.83;59.41;99973.13;5050846;28;19981;-50
2022/12/10 01:33:43;;;;;;;;;;;;;;;2.88;59.40;99968.84;5049147;28;19921;-52
2022/12/10 01:36:11;;;;;;;;;;;;;;;2.87;59.58;99975.75;5050678;28;20281;-51
2022/12/10 01:38:36;;;;;;;;;;;;;;;2.85;59.40;99968.81;5048412;28;19956;-49
2022/12/10 01:41:02;;;;;;;;;;;;;;;2.81;59.04;99965.34;5037395;28;20462;-51
2022/12/10 01:43:27;;;;;;;;;;;;;;;2.86;59.03;99965.38;5037727;28;20395;-51
2022/12/10 01:45:53;;;;;;;;;;;;;;;2.74;59.05;99962.72;5038348;28;20312;-51
2022/12/10 01:48:18;;;;;;;;;;;;;;;2.71;59.20;99961.88;5034797;28;20012;-50
2022/12/10 01:50:43;;;;;;;;;;;;;;;2.67;59.16;99959.25;5037071;28;19921;-54
2022/12/10 01:53:09;;;;;;;;;;;;;;;2.53;59.34;99966.13;5036961;28;19925;-53
2022/12/10 01:55:43;;;;;;;;;;;;;;;2.67;59.15;99962.72;5049951;28;19924;-52
2022/12/10 01:58:09;;;;;;;;;;;;;;;2.68;59.16;99961.00;5047860;28;20015;-52
2022/12/10 02:00:37;;;;;;;;;;;;;;;2.66;59.00;99957.50;5037714;28;20000;-51
2022/12/10 02:03:07;;;;;;;;;;;;;;;2.72;58.80;99960.16;5050126;28;19946;-51
2022/12/10 02:05:43;;;;;;;;;;;;;;;2.77;58.80;99949.78;5048539;28;19972;-50
2022/12/10 02:08:15;;;;;;;;;;;;;;;2.70;58.73;99952.34;5048968;28;20376;-51
2022/12/10 02:10:40;;;;;;;;;;;;;;;2.75;58.46;99959.25;5048674;28;19927;-48
2022/12/10 02:13:17;;;;;;;;;;;;;;;2.64;58.45;99948.88;5052715;28;20011;-49
2022/12/10 02:16:11;;;;;;;;;;;;;;;2.80;58.52;99955.84;5049985;28;19936;-49
2022/12/10 02:18:48;;;;;;;;;;;;;;;2.89;58.10;99955.00;5036367;28;19925;-48
2022/12/10 02:21:40;;;;;;;;;;;;;;;2.83;58.10;99944.59;5034659;28;19920;-49
2022/12/10 02:24:13;;;;;;;;;;;;;;;2.82;58.11;99942.88;5036927;28;19983;-50
2022/12/10 02:26:53;;;;;;;;;;;;;;;2.81;57.79;99946.31;5036714;28;19922;-49
2022/12/10 02:29:20;;;;;;;;;;;;;;;2.84;58.06;99942.03;5034186;28;19956;-49
2022/12/10 02:31:48;;;;;;;;;;;;;;;2.81;57.61;99951.50;5035390;28;20402;-50
2022/12/10 02:34:16;;;;;;;;;;;;;;;2.84;57.64;99947.22;5036116;28;19921;-52
2022/12/10 02:36:43;;;;;;;;;;;;;;;2.81;57.38;99951.50;5039100;28;19971;-53
2022/12/10 02:39:11;;;;;;;;;;;;;;;2.66;57.43;99950.59;5049901;28;19966;-52
2022/12/10 02:41:40;;;;;;;;;;;;;;;2.69;57.59;99942.81;5047987;28;19964;-49
2022/12/10 02:44:07;;;;;;;;;;;;;;;2.69;57.33;99937.63;5049675;28;20022;-52
2022/12/10 02:46:34;;;;;;;;;;;;;;;2.70;57.49;99944.56;5048385;28;20363;-51
2022/12/10 02:49:01;;;;;;;;;;;;;;;2.72;57.29;99935.06;5042315;28;19974;-50
2022/12/10 02:51:26;;;;;;;;;;;;;;;2.59;57.20;99941.06;5046101;28;19925;-51
2022/12/10 02:54:02;;;;;;;;;;;;;;;2.50;57.56;99948.81;5036575;28;19994;-55
2022/12/10 02:56:42;;;;;;;;;;;;;;;2.52;57.51;99949.69;5044525;28;20071;-53
2022/12/10 02:59:11;;;;;;;;;;;;;;;2.43;57.26;99949.63;5047317;28;20409;-52
2022/12/10 03:01:39;;;;;;;;;;;;;;;2.46;57.39;99950.50;5051658;28;19928;-51
2022/12/10 03:04:14;;;;;;;;;;;;;;;2.35;57.22;99946.13;5045912;28;20022;-51
2022/12/10 03:06:42;;;;;;;;;;;;;;;2.36;57.09;99942.72;5040058;28;19921;-49
2022/12/10 03:09:12;;;;;;;;;;;;;;;2.29;56.83;99941.81;5045417;28;19918;-52
2022/12/10 03:11:38;;;;;;;;;;;;;;;2.32;57.11;99935.78;5050514;28;19925;-55
2022/12/10 03:14:08;;;;;;;;;;;;;;;2.29;57.04;99940.94;5053381;28;19925;-52
2022/12/10 03:16:35;;;;;;;;;;;;;;;2.26;57.01;99941.78;5051945;28;20380;-53
2022/12/10 03:19:02;;;;;;;;;;;;;;;2.34;57.12;99947.00;5038786;28;19971;-51
2022/12/10 03:21:30;;;;;;;;;;;;;;;2.29;56.71;99948.72;5038710;28;19917;-51
2022/12/10 03:23:55;;;;;;;;;;;;;;;2.21;56.92;99946.09;5038562;28;19921;-54
2022/12/10 03:26:21;;;;;;;;;;;;;;;2.29;56.78;99951.31;5046431;28;20372;-53
2022/12/10 03:28:50;;;;;;;;;;;;;;;2.24;56.77;99942.66;5042231;28;19931;-53
2022/12/10 03:31:16;;;;;;;;;;;;;;;2.15;56.76;99944.31;5040168;28;19928;-54
2022/12/10 03:33:43;;;;;;;;;;;;;;;2.38;56.99;99951.34;5039228;28;19936;-53
2022/12/10 03:36:09;;;;;;;;;;;;;;;2.44;56.79;99951.38;5037288;28;19929;-51
2022/12/10 03:38:35;;;;;;;;;;;;;;;2.48;56.52;99947.94;5039538;28;20329;-50
2022/12/10 03:41:00;;;;;;;;;;;;;;;2.62;56.33;99948.00;5038238;28;20292;-54
2022/12/10 03:43:26;;;;;;;;;;;;;;;2.52;56.09;99952.28;5046264;28;19921;-52
2022/12/10 03:45:51;;;;;;;;;;;;;;;2.63;56.24;99950.59;5046996;28;19925;-53
2022/12/10 03:48:16;;;;;;;;;;;;;;;2.64;56.54;99954.06;5038490;28;19929;-50
2022/12/10 03:50:41;;;;;;;;;;;;;;;2.59;56.43;99951.41;5042197;28;20281;-54
2022/12/10 03:53:07;;;;;;;;;;;;;;;2.49;56.40;99948.81;5049079;28;19924;-54
2022/12/10 03:55:32;;;;;;;;;;;;;;;2.51;56.09;99949.66;5051126;28;19982;-52
2022/12/10 03:57:59;;;;;;;;;;;;;;;2.36;56.41;99956.53;5045141;28;20388;-50
2022/12/10 04:00:25;;;;;;;;;;;;;;;2.37;56.48;99949.63;5049562;28;19994;-50
2022/12/10 04:02:50;;;;;;;;;;;;;;;2.37;57.00;99949.63;5051186;28;19932;-48
2022/12/10 04:05:15;;;;;;;;;;;;;;;2.45;56.95;99953.13;5051876;28;19932;-49
2022/12/10 04:07:41;;;;;;;;;;;;;;;2.53;56.68;99953.16;5050243;28;19927;-49
2022/12/10 04:10:07;;;;;;;;;;;;;;;2.56;56.69;99956.63;5051209;28;20442;-49
2022/12/10 04:12:32;;;;;;;;;;;;;;;2.45;56.87;99953.13;5050640;28;19933;-49
2022/12/10 04:17:41;;;;;;;;;;;;;;;2.52;56.72;99949.69;5045754;28;19932;-52
2022/12/10 04:26:51;;;;;;;;;;;;;;;2.60;56.73;99941.94;5051268;28;19925;-50
2022/12/10 04:28:20;;;;;;;;;;;;;;;2.62;56.24;99948.00;5046993;28;20336;-51
2022/12/10 04:30:45;;;;;;;;;;;;;;;2.59;55.90;99946.22;5050079;28;20385;-53
2022/12/10 04:33:10;;;;;;;;;;;;;;;2.69;56.15;99954.94;5050893;28;19944;-50
2022/12/10 04:35:36;;;;;;;;;;;;;;;2.71;56.00;99951.50;5049729;28;20351;-50
2022/12/10 04:38:01;;;;;;;;;;;;;;;2.72;55.65;99953.22;5050914;28;19929;-50
2022/12/10 04:40:26;;;;;;;;;;;;;;;2.71;55.34;99955.78;5049400;28;20428;-53
2022/12/10 04:42:51;;;;;;;;;;;;;;;2.59;55.43;99941.06;5049903;28;19933;-51
2022/12/10 04:45:17;;;;;;;;;;;;;;;2.64;55.86;99941.94;5050889;28;19929;-53
2022/12/10 04:47:42;;;;;;;;;;;;;;;2.66;56.23;99945.41;5049785;28;19941;-50
2022/12/10 04:50:07;;;;;;;;;;;;;;;2.77;56.42;99942.84;5051833;28;19921;-52
2022/12/10 04:52:33;;;;;;;;;;;;;;;2.82;55.89;99942.88;5035970;28;19986;-52
2022/12/10 04:54:58;;;;;;;;;;;;;;;2.87;55.58;99942.03;5036675;28;19925;-51
2022/12/10 04:57:23;;;;;;;;;;;;;;;2.96;55.81;99951.56;5043094;28;19921;-53
2022/12/10 04:59:48;;;;;;;;;;;;;;;3.06;55.80;99947.25;5050393;28;19925;-53
2022/12/10 05:02:14;;;;;;;;;;;;;;;3.17;55.89;99943.81;5051204;28;19921;-49
2022/12/10 05:04:39;;;;;;;;;;;;;;;3.27;55.56;99936.91;5048548;28;19999;-49
2022/12/10 05:07:04;;;;;;;;;;;;;;;3.31;55.32;99937.75;5049182;28;19924;-51
2022/12/10 05:09:30;;;;;;;;;;;;;;;3.34;55.07;99942.94;5037365;28;19917;-52
2022/12/10 05:11:55;;;;;;;;;;;;;;;3.36;55.55;99939.50;5036384;28;19951;-53
2022/12/10 05:14:20;;;;;;;;;;;;;;;3.36;54.97;99942.09;5036768;28;19917;-52
2022/12/10 05:16:48;;;;;;;;;;;;;;;3.27;54.82;99949.00;5036032;28;19931;-54
2022/12/10 05:19:13;;;;;;;;;;;;;;;3.25;55.11;99948.16;5035593;28;19917;-52
2022/12/10 05:24:23;;;;;;;;;;;;;;;3.38;54.96;99944.69;5041513;28;19947;-50
2022/12/10 05:26:50;;;;;;;;;;;;;;;3.41;54.86;99947.28;5035513;28;20028;-53
2022/12/10 05:29:16;;;;;;;;;;;;;;;3.43;54.74;99953.34;5047836;28;19927;-52
2022/12/10 05:31:41;;;;;;;;;;;;;;;3.54;54.66;99955.94;5045806;28;19925;-50
2022/12/10 05:34:08;;;;;;;;;;;;;;;3.64;54.73;99955.97;5050236;28;20296;-54
2022/12/10 05:36:33;;;;;;;;;;;;;;;3.73;54.47;99954.22;5043643;28;19921;-53
2022/12/10 05:38:58;;;;;;;;;;;;;;;3.72;54.65;99955.09;5037400;28;19917;-50
2022/12/10 05:41:25;;;;;;;;;;;;;;;3.50;54.30;99955.06;5047658;28;19921;-48
2022/12/10 05:43:50;;;;;;;;;;;;;;;3.47;54.09;99960.25;5040970;28;20368;-56
2022/12/10 05:46:17;;;;;;;;;;;;;;;3.20;54.72;99962.00;5033816;28;19982;-53
2022/12/10 05:48:43;;;;;;;;;;;;;;;3.25;55.24;99961.13;5033982;28;19921;-52
2022/12/10 05:51:10;;;;;;;;;;;;;;;3.21;55.32;99961.13;5032706;28;19943;-51
2022/12/10 05:53:35;;;;;;;;;;;;;;;3.22;55.57;99972.38;5033738;28;19925;-50
2022/12/10 05:56:01;;;;;;;;;;;;;;;3.13;55.67;99970.63;5032299;28;20281;-50
2022/12/10 05:58:27;;;;;;;;;;;;;;;3.18;55.69;99968.91;5046990;28;19917;-50
2022/12/10 06:00:52;;;;;;;;;;;;;;;3.14;55.98;99969.75;5033626;28;19925;-51
2022/12/10 06:03:17;;;;;;;;;;;;;;;3.28;56.03;99971.53;5033674;28;19928;-50
2022/12/10 06:05:42;;;;;;;;;;;;;;;3.33;56.15;99978.44;5032079;28;19921;-52
2022/12/10 06:08:08;;;;;;;;;;;;;;;3.37;56.05;99984.50;5036651;28;19921;-50
2022/12/10 06:10:34;;;;;;;;;;;;;;;3.46;55.96;99987.09;5037780;28;19944;-54
2022/12/10 06:12:59;;;;;;;;;;;;;;;3.51;55.70;99990.59;5033289;28;19917;-53
2022/12/10 06:15:25;;;;;;;;;;;;;;;3.58;55.51;99989.72;5032664;28;20274;-51
2022/12/10 06:17:50;;;;;;;;;;;;;;;3.59;55.26;99982.78;5032010;28;19981;-52
2022/12/10 06:20:15;;;;;;;;;;;;;;;3.71;55.21;99988.00;5033116;28;19922;-54
2022/12/10 06:22:40;;;;;;;;;;;;;;;3.80;55.08;99989.75;5044180;28;19921;-52
2022/12/10 06:25:06;;;;;;;;;;;;;;;3.88;54.98;99982.81;5053348;28;20370;-53
2022/12/10 06:27:31;;;;;;;;;;;;;;;3.93;54.84;99988.84;5053215;28;19921;-53
2022/12/10 06:29:57;;;;;;;;;;;;;;;3.96;54.68;99988.84;5040044;28;20012;-50
2022/12/10 06:32:22;;;;;;;;;;;;;;;3.96;54.50;99986.25;5036781;28;19921;-53
2022/12/10 06:34:47;;;;;;;;;;;;;;;3.95;54.37;99987.13;5036395;28;19922;-52
2022/12/10 06:37:12;;;;;;;;;;;;;;;3.91;54.72;99987.97;5037039;28;19921;-53
2022/12/10 06:39:38;;;;;;;;;;;;;;;3.94;54.72;99983.63;5036930;28;20427;-50
2022/12/10 06:42:03;;;;;;;;;;;;;;;3.98;54.36;99983.66;5043983;28;19921;-50
2022/12/10 06:44:28;;;;;;;;;;;;;;;4.00;54.19;99987.13;5043262;28;19935;-51
2022/12/10 06:46:54;;;;;;;;;;;;;;;3.87;54.20;99987.13;5047676;28;20382;-52
2022/12/10 06:49:19;;;;;;;;;;;;;;;3.84;54.13;99991.47;5049005;28;19917;-54
2022/12/10 06:51:44;;;;;;;;;;;;;;;3.80;54.15;99994.94;5036594;28;20340;-51
2022/12/10 06:54:09;;;;;;;;;;;;;;;3.82;54.57;99993.19;5049252;28;19921;-53
2022/12/10 06:56:35;;;;;;;;;;;;;;;3.88;54.45;99994.06;5036905;28;19925;-52
2022/12/10 06:59:03;;;;;;;;;;;;;;;3.90;54.29;99987.09;5043989;28;20391;-51
2022/12/10 07:01:28;;;;;;;;;;;;;;;3.77;54.58;99992.34;5056845;28;20102;-51
2022/12/10 07:03:55;;;;;;;;;;;;;;;3.78;54.93;99994.06;5056842;28;20336;-51
2022/12/10 07:06:20;;;;;;;;;;;;;;;3.82;54.73;99998.38;5050540;28;19944;-52
2022/12/10 07:08:46;;;;;;;;;;;;;;;3.88;55.08;99991.47;5045727;28;20376;-52
2022/12/10 07:11:13;;;;;;;;;;;;;;;3.95;54.56;99990.59;5045928;28;20058;-48
2022/12/10 07:13:39;;;;;;;;;;;;;;;3.95;54.98;99998.41;5039505;28;19921;-50
2022/12/10 07:16:11;;;;;;;;;;;;;;;4.02;54.79;99998.38;5052882;28;19927;-54
2022/12/10 07:18:37;;;;;;;;;;;;;;;4.06;54.39;99998.34;5051989;28;19952;-49
2022/12/10 07:21:11;;;;;;;;;;;;;;;4.11;54.49;99996.63;5052832;28;20424;-48
2022/12/10 07:23:37;;;;;;;;;;;;;;;4.19;54.16;100001.84;5042369;28;19990;-53
2022/12/10 07:26:02;;;;;;;;;;;;;;;4.23;53.82;99998.34;5040368;28;20288;-53
2022/12/10 07:28:27;;;;;;;;;;;;;;;4.22;53.70;99998.34;5044871;28;20423;-52
2022/12/10 07:30:59;;;;;;;;;;;;;;;4.24;53.83;99991.41;5051526;28;19931;-50
2022/12/10 07:33:25;;;;;;;;;;;;;;;4.27;54.08;100002.69;5037842;28;19940;-50
2022/12/10 07:35:50;;;;;;;;;;;;;;;4.27;53.85;99997.47;5039620;28;20361;-49
2022/12/10 07:38:15;;;;;;;;;;;;;;;4.36;54.05;99992.25;5055715;28;19964;-52
2022/12/10 07:40:40;;;;;;;;;;;;;;;4.32;53.78;99990.53;5038396;28;19994;-51
2022/12/10 07:43:06;;;;;;;;;;;;;;;4.25;53.70;99995.75;5039526;28;19925;-52
2022/12/10 07:45:32;;;;;;;;;;;;;;;4.25;53.84;99998.34;5051357;28;19966;-52
2022/12/10 07:47:57;;;;;;;;;;;;;;;4.24;53.92;100007.88;5038893;28;20004;-49
2022/12/10 07:50:22;;;;;;;;;;;;;;;4.34;53.97;100008.72;5038396;28;19929;-50
2022/12/10 07:52:47;;;;;;;;;;;;;;;4.44;54.21;100007.84;5038988;28;19925;-49
2022/12/10 07:55:13;;;;;;;;;;;;;;;4.50;53.74;100006.94;5039355;28;19924;-53
2022/12/10 07:57:38;;;;;;;;;;;;;;;4.47;53.50;100005.25;5044938;28;19932;-56
2022/12/10 08:00:04;;;;;;;;;;;;;;;4.54;53.46;100006.91;5036984;28;19971;-50
2022/12/10 08:02:29;;;;;;;;;;;;;;;4.63;53.35;100013.84;5041021;28;19927;-54
2022/12/10 08:04:54;;;;;;;;;;;;;;;4.62;52.83;100009.50;5041410;28;20297;-57
2022/12/10 08:07:20;;;;;;;;;;;;;;;4.54;53.40;100022.53;5037434;28;20004;-54
2022/12/10 08:09:45;;;;;;;;;;;;;;;4.17;54.62;100026.97;5044488;28;19929;-52
2022/12/10 08:12:10;;;;;;;;;;;;;;;4.19;55.11;100020.91;5037895;28;20282;-53
2022/12/10 08:14:36;;;;;;;;;;;;;;;4.32;54.84;100020.88;5037799;28;19960;-56
2022/12/10 08:17:01;;;;;;;;;;;;;;;4.44;54.91;100019.09;5048476;28;19920;-49
2022/12/10 08:19:26;;;;;;;;;;;;;;;4.52;54.19;100020.81;5046250;28;19978;-50
2022/12/10 08:21:51;;;;;;;;;;;;;;;4.59;53.70;100022.53;5032012;28;19978;-53
2022/12/10 08:24:17;;;;;;;;;;;;;;;4.62;53.87;100025.13;5046040;28;19920;-51
2022/12/10 08:26:42;;;;;;;;;;;;;;;4.68;53.57;100035.53;5048251;28;19932;-51
2022/12/10 08:29:07;;;;;;;;;;;;;;;4.65;53.54;100020.78;5035093;28;19928;-51
2022/12/10 08:31:33;;;;;;;;;;;;;;;4.72;53.26;100029.44;5039542;28;19928;-50
2022/12/10 08:33:58;;;;;;;;;;;;;;;4.50;53.79;100028.63;5040721;28;19925;-52
2022/12/10 08:36:23;;;;;;;;;;;;;;;4.53;53.80;100018.22;5039905;28;19966;-55
2022/12/10 08:38:49;;;;;;;;;;;;;;;4.56;54.00;100028.63;5036450;28;20023;-51
2022/12/10 08:41:16;;;;;;;;;;;;;;;4.52;54.26;100028.63;5038108;28;19917;-50
2022/12/10 08:43:42;;;;;;;;;;;;;;;4.53;53.87;100026.00;5045256;28;19921;-50
2022/12/10 08:46:08;;;;;;;;;;;;;;;4.60;53.91;100029.47;5034397;28;19925;-52
2022/12/10 08:48:34;;;;;;;;;;;;;;;4.55;53.77;100026.91;5035947;28;19988;-51
2022/12/10 08:50:59;;;;;;;;;;;;;;;4.52;53.80;100023.44;5034630;28;19916;-52
2022/12/10 08:53:25;;;;;;;;;;;;;;;4.64;53.46;100028.59;5033510;28;19951;-54
2022/12/10 08:55:50;;;;;;;;;;;;;;;4.69;53.73;100030.31;5037358;28;19995;-51
2022/12/10 08:58:16;;;;;;;;;;;;;;;4.65;53.94;100028.56;5044469;28;19952;-52
2022/12/10 09:00:41;;;;;;;;;;;;;;;4.61;53.99;100024.25;5053050;28;19921;-53
2022/12/10 09:03:07;;;;;;;;;;;;;;;4.64;54.14;100021.66;5053759;28;19921;-54
2022/12/10 09:05:33;;;;;;;;;;;;;;;4.31;54.38;100027.81;5054846;28;19947;-51
2022/12/10 09:07:59;;;;;;;;;;;;;;;4.10;54.31;100020.03;5053763;28;20002;-54
2022/12/10 09:10:24;;;;;;;;;;;;;;;4.28;54.23;100020.00;5054521;28;19976;-51
2022/12/10 09:12:49;;;;;;;;;;;;;;;4.30;54.48;100012.19;5052776;28;19921;-54
2022/12/10 09:15:14;;;;;;;;;;;;;;;4.29;54.74;100013.94;5053371;28;19921;-52
2022/12/10 09:17:40;;;;;;;;;;;;;;;4.19;55.28;100012.22;5035575;28;20399;-50
2022/12/10 09:20:05;;;;;;;;;;;;;;;4.18;55.30;100006.13;5054731;28;20275;-53
2022/12/10 09:22:31;;;;;;;;;;;;;;;4.28;55.20;100000.94;5054385;28;19933;-50
2022/12/10 09:24:56;;;;;;;;;;;;;;;4.26;55.10;100002.66;5054588;28;19962;-50
2022/12/10 09:27:22;;;;;;;;;;;;;;;4.43;54.99;100003.50;5054285;28;20303;-51
2022/12/10 09:29:47;;;;;;;;;;;;;;;4.38;54.68;100008.69;5054170;28;19963;-52
2022/12/10 09:32:12;;;;;;;;;;;;;;;4.49;54.67;99998.28;5054370;28;20024;-54
2022/12/10 09:34:37;;;;;;;;;;;;;;;4.39;54.83;100001.78;5054362;28;20315;-51
2022/12/10 09:37:03;;;;;;;;;;;;;;;4.44;54.57;100002.63;5053086;28;19924;-51
2022/12/10 09:39:28;;;;;;;;;;;;;;;4.52;54.07;99997.41;5053371;28;19967;-52
2022/12/10 09:42:18;;;;;;;;;;;;;;;4.43;54.16;99999.16;5053457;28;19982;-53
2022/12/10 09:44:53;;;;;;;;;;;;;;;4.50;54.27;100009.53;5054198;28;19921;-51
2022/12/10 09:47:20;;;;;;;;;;;;;;;4.23;55.15;100011.34;5053325;28;19956;-50
2022/12/10 09:50:05;;;;;;;;;;;;;;;4.30;54.43;100010.44;5054089;28;20019;-50
2022/12/10 09:52:36;;;;;;;;;;;;;;;4.36;54.13;100007.00;5046579;28;19984;-50
2022/12/10 09:55:05;;;;;;;;;;;;;;;4.16;54.04;100007.03;5053394;28;19928;-50
2022/12/10 09:57:35;;;;;;;;;;;;;;;4.38;54.24;100005.25;5054136;28;19924;-50
2022/12/10 10:00:07;;;;;;;;;;;;;;;4.35;53.70;100010.44;5053892;28;19923;-53
2022/12/10 10:02:33;;;;;;;;;;;;;;;4.39;53.62;100012.19;5054041;28;19916;-49
2022/12/10 10:05:07;;;;;;;;;;;;;;;4.25;53.39;100014.81;5053462;28;19924;-50
2022/12/10 10:07:34;;;;;;;;;;;;;;;4.42;53.64;100013.03;5053771;28;19994;-52
2022/12/10 10:10:01;;;;;;;;;;;;;;;4.38;53.42;100008.69;5053608;28;19916;-52
2022/12/10 10:12:27;;;;;;;;;;;;;;;4.19;53.89;100015.69;5053862;28;20459;-51
2022/12/10 10:14:53;;;;;;;;;;;;;;;4.19;53.82;100015.69;5052445;28;19952;-52
2022/12/10 10:17:26;;;;;;;;;;;;;;;4.25;54.04;100009.59;5052389;28;19960;-51
2022/12/10 10:19:51;;;;;;;;;;;;;;;4.28;53.53;100006.16;5053644;28;19974;-53
2022/12/10 10:22:16;;;;;;;;;;;;;;;4.30;53.38;100017.41;5052654;28;19952;-54
2022/12/10 10:24:43;;;;;;;;;;;;;;;4.25;53.39;100016.53;5052754;28;19948;-51
2022/12/10 10:27:16;;;;;;;;;;;;;;;4.27;53.28;100017.38;5054320;28;19948;-49
2022/12/10 10:29:45;;;;;;;;;;;;;;;4.24;53.71;100012.22;5054171;28;19995;-50
2022/12/10 10:32:19;;;;;;;;;;;;;;;4.36;53.85;100017.41;5054530;28;19974;-52
2022/12/10 10:34:46;;;;;;;;;;;;;;;4.35;53.31;100013.94;5052639;28;20360;-50
2022/12/10 10:37:16;;;;;;;;;;;;;;;4.33;53.46;100018.25;5053749;28;20351;-51
2022/12/10 10:39:46;;;;;;;;;;;;;;;4.38;53.38;100016.50;5053767;28;19920;-51
2022/12/10 10:42:17;;;;;;;;;;;;;;;4.47;52.83;100013.03;5053911;28;19947;-51
2022/12/10 10:44:42;;;;;;;;;;;;;;;4.48;52.86;100013.91;5053562;28;19924;-54
2022/12/10 10:47:28;;;;;;;;;;;;;;;4.39;53.04;100012.19;5053542;28;19917;-50
2022/12/10 10:49:53;;;;;;;;;;;;;;;4.51;52.88;100006.97;5052875;28;20327;-52
2022/12/10 10:52:19;;;;;;;;;;;;;;;4.61;52.81;100003.44;5053459;28;19970;-51
2022/12/10 10:54:45;;;;;;;;;;;;;;;4.31;53.06;100008.72;5053326;28;19947;-53
2022/12/10 10:57:12;;;;;;;;;;;;;;;4.36;53.29;100007.00;5053460;28;19917;-50
2022/12/10 10:59:38;;;;;;;;;;;;;;;4.42;53.47;100009.56;5053249;28;19917;-52
2022/12/10 11:02:15;;;;;;;;;;;;;;;4.39;53.32;100000.06;5053377;28;19917;-52
2022/12/10 11:04:51;;;;;;;;;;;;;;;4.20;53.39;100006.16;5053526;28;20311;-51
2022/12/10 11:07:21;;;;;;;;;;;;;;;4.28;53.09;99999.22;5053301;28;19940;-51
2022/12/10 11:09:47;;;;;;;;;;;;;;;4.30;52.75;99996.59;5053201;28;19974;-51
2022/12/10 11:12:42;;;;;;;;;;;;;;;4.20;53.17;99991.41;5051912;28;19924;-54
2022/12/10 11:15:34;;;;;;;;;;;;;;;4.24;53.46;99991.41;5048274;28;20473;-51
2022/12/10 11:18:00;;;;;;;;;;;;;;;4.31;52.91;99998.31;5055196;28;20027;-53
2022/12/10 11:20:27;;;;;;;;;;;;;;;4.45;53.01;99991.34;5056784;28;19921;-50
2022/12/10 11:22:57;;;;;;;;;;;;;;;4.38;52.83;99992.22;5056226;28;19946;-49
2022/12/10 11:25:31;;;;;;;;;;;;;;;4.48;52.59;99995.69;5041569;28;19984;-54
2022/12/10 11:28:00;;;;;;;;;;;;;;;4.46;52.53;99995.66;5045975;28;19971;-52
2022/12/10 11:30:26;;;;;;;;;;;;;;;4.48;52.62;99998.28;5036246;28;20011;-51
2022/12/10 11:33:03;;;;;;;;;;;;;;;4.50;53.09;99989.59;5035433;28;20357;-52
2022/12/10 11:35:28;;;;;;;;;;;;;;;4.48;52.75;99983.53;5035804;28;19925;-51
2022/12/10 11:38:12;;;;;;;;;;;;;;;4.42;52.82;99980.94;5035934;28;19917;-52
2022/12/10 11:40:45;;;;;;;;;;;;;;;4.30;53.04;99988.78;5036354;28;19917;-48
2022/12/10 11:43:16;;;;;;;;;;;;;;;4.35;53.26;99984.44;5036198;28;19921;-53
2022/12/10 11:45:59;;;;;;;;;;;;;;;4.33;53.79;99981.84;5034932;28;19917;-52
2022/12/10 11:48:24;;;;;;;;;;;;;;;4.05;54.01;99995.78;5036088;28;19923;-53
2022/12/10 11:50:53;;;;;;;;;;;;;;;4.16;53.80;99994.88;5035478;28;19917;-52
2022/12/10 11:53:34;;;;;;;;;;;;;;;4.26;53.77;99989.66;5035837;28;19925;-54
2022/12/10 11:56:07;;;;;;;;;;;;;;;4.35;53.21;99989.63;5036427;28;19967;-50
2022/12/10 11:58:55;;;;;;;;;;;;;;;4.47;53.32;99984.41;5036247;28;19956;-51
2022/12/10 12:01:23;;;;;;;;;;;;;;;4.61;53.16;99990.44;5034715;28;19959;-54
2022/12/10 12:03:54;;;;;;;;;;;;;;;4.51;53.10;99998.25;5035494;28;19924;-56
2022/12/10 12:06:19;;;;;;;;;;;;;;;4.51;52.77;99983.53;5036215;28;19987;-51
2022/12/10 12:08:51;;;;;;;;;;;;;;;4.48;52.80;99993.94;5035825;28;20357;-51
2022/12/10 12:11:16;;;;;;;;;;;;;;;4.42;52.92;99997.41;5036258;28;19925;-52
2022/12/10 12:13:50;;;;;;;;;;;;;;;4.58;52.80;99995.63;5036308;28;20277;-48
2022/12/10 12:16:28;;;;;;;;;;;;;;;4.57;52.59;99995.66;5035992;28;19924;-49
2022/12/10 12:18:57;;;;;;;;;;;;;;;4.63;52.46;99996.50;5035643;28;19921;-51
2022/12/10 12:21:23;;;;;;;;;;;;;;;4.58;52.70;99989.56;5035497;28;19921;-52
2022/12/10 12:23:57;;;;;;;;;;;;;;;4.73;52.36;99991.25;5034890;28;19928;-51
2022/12/10 12:26:43;;;;;;;;;;;;;;;4.79;51.98;99994.72;5035245;28;20038;-50
2022/12/10 12:29:14;;;;;;;;;;;;;;;4.99;51.93;99992.00;5026686;28;19948;-53
2022/12/10 12:31:41;;;;;;;;;;;;;;;5.08;51.53;99993.69;5035381;28;19924;-52
2022/12/10 12:34:25;;;;;;;;;;;;;;;5.08;51.47;99993.69;5035077;28;19925;-54
2022/12/10 12:36:51;;;;;;;;;;;;;;;5.15;51.59;99998.00;5035463;28;19917;-54
2022/12/10 12:39:27;;;;;;;;;;;;;;;5.18;51.49;99992.75;5035191;28;20266;-52
2022/12/10 12:41:55;;;;;;;;;;;;;;;5.03;51.53;99993.72;5035147;28;19960;-50
2022/12/10 12:44:39;;;;;;;;;;;;;;;5.00;51.46;99987.66;5035400;28;19917;-53
2022/12/10 12:47:15;;;;;;;;;;;;;;;5.05;51.27;99988.50;5035684;28;19924;-52
2022/12/10 12:49:41;;;;;;;;;;;;;;;4.83;51.75;99987.75;5035670;28;19917;-52
2022/12/10 12:52:12;;;;;;;;;;;;;;;4.81;51.37;99986.88;5034910;28;19931;-51
2022/12/10 12:54:39;;;;;;;;;;;;;;;4.59;51.28;99997.38;5034468;28;20280;-52
2022/12/10 12:57:07;;;;;;;;;;;;;;;4.63;51.34;99996.50;5035025;28;19925;-51
2022/12/10 12:59:32;;;;;;;;;;;;;;;4.75;51.44;99989.50;5034781;28;19923;-52
2022/12/10 13:02:00;;;;;;;;;;;;;;;4.87;51.29;99990.34;5035112;28;19917;-53
2022/12/10 13:04:26;;;;;;;;;;;;;;;4.70;51.69;99987.78;5034821;28;19917;-55
2022/12/10 13:07:10;;;;;;;;;;;;;;;4.49;51.65;99976.59;5034631;28;19944;-51
2022/12/10 13:09:42;;;;;;;;;;;;;;;4.54;52.01;99983.50;5034582;28;19917;-54